createdAt,value
2023-05-25T00:01:13.490Z,6.00
2023-05-25T00:03:40.591Z,5.82
2023-05-25T00:06:07.510Z,7.10
2023-05-25T00:08:34.092Z,5.80
2023-05-25T00:11:00.728Z,5.97
2023-05-25T00:13:27.379Z,5.45
2023-05-25T00:15:54.026Z,6.18
2023-05-25T00:18:20.747Z,6.45
2023-05-25T00:20:47.740Z,6.57
2023-05-25T00:23:14.625Z,6.97
2023-05-25T00:25:41.364Z,6.95
2023-05-25T00:28:08.029Z,7.00
2023-05-25T00:30:34.663Z,5.63
2023-05-25T00:33:01.922Z,5.53
2023-05-25T00:35:29.003Z,5.78
2023-05-25T00:37:55.928Z,5.72
2023-05-25T00:40:22.672Z,6.90
2023-05-25T00:42:49.490Z,6.95
2023-05-25T00:45:16.190Z,6.50
2023-05-25T00:47:43.330Z,5.50
2023-05-25T00:50:11.152Z,7.38
2023-05-25T00:52:37.722Z,6.47
2023-05-25T00:55:06.637Z,6.25
2023-05-25T00:57:34.300Z,6.32
2023-05-25T01:00:02.659Z,6.28
2023-05-25T01:02:29.660Z,5.68
2023-05-25T01:04:59.869Z,6.00
2023-05-25T01:07:27.846Z,7.32
2023-05-25T01:09:58.623Z,6.78
2023-05-25T01:12:28.479Z,7.80
2023-05-25T01:14:55.975Z,7.25
2023-05-25T01:17:22.670Z,6.53
2023-05-25T01:20:01.465Z,6.07
2023-05-25T01:22:42.658Z,5.72
2023-05-25T01:25:23.250Z,7.00
2023-05-25T01:27:55.059Z,7.50
2023-05-25T01:30:25.763Z,7.50
2023-05-25T01:32:53.592Z,7.97
2023-05-25T01:35:21.909Z,6.72
2023-05-25T01:37:49.580Z,8.00
2023-05-25T01:40:18.228Z,9.40
2023-05-25T01:42:44.844Z,7.18
2023-05-25T01:45:12.886Z,7.30
2023-05-25T01:48:03.570Z,6.72
2023-05-25T01:50:36.926Z,6.65
2023-05-25T01:53:05.031Z,5.82
2023-05-25T01:55:37.996Z,5.97
2023-05-25T01:58:05.661Z,7.25
2023-05-25T02:00:32.764Z,7.68
2023-05-25T02:02:59.973Z,6.18
2023-05-25T02:05:27.958Z,5.93
2023-05-25T02:07:54.628Z,5.95
2023-05-25T02:10:21.571Z,6.57
2023-05-25T02:12:48.185Z,6.75
2023-05-25T02:15:15.811Z,6.63
2023-05-25T02:17:43.364Z,6.38
2023-05-25T02:20:11.897Z,6.95
2023-05-25T02:22:38.579Z,7.57
2023-05-25T02:25:05.813Z,7.70
2023-05-25T02:27:32.428Z,6.40
2023-05-25T02:29:59.011Z,5.93
2023-05-25T02:32:25.627Z,8.55
2023-05-25T02:34:52.274Z,6.93
2023-05-25T02:37:18.854Z,5.13
2023-05-25T02:39:45.403Z,6.07
2023-05-25T02:42:12.299Z,6.60
2023-05-25T02:44:38.899Z,5.70
2023-05-25T02:47:06.895Z,6.13
2023-05-25T02:49:34.492Z,7.90
2023-05-25T02:52:01.117Z,6.93
2023-05-25T02:54:27.817Z,5.65
2023-05-25T02:56:54.391Z,7.03
2023-05-25T02:59:21.616Z,6.28
2023-05-25T03:01:48.215Z,8.07
2023-05-25T03:04:14.972Z,6.80
2023-05-25T03:06:41.737Z,6.50
2023-05-25T03:09:09.620Z,5.32
2023-05-25T03:11:36.370Z,5.53
2023-05-25T03:14:02.972Z,6.18
2023-05-25T03:16:29.694Z,5.43
2023-05-25T03:18:56.364Z,6.60
2023-05-25T03:21:23.736Z,6.45
2023-05-25T03:23:50.426Z,5.88
2023-05-25T03:26:17.623Z,6.25
2023-05-25T03:28:44.471Z,6.13
2023-05-25T03:31:12.342Z,6.43
2023-05-25T03:33:38.975Z,8.40
2023-05-25T03:36:09.528Z,7.38
2023-05-25T03:38:39.466Z,6.50
2023-05-25T03:41:06.071Z,7.50
2023-05-25T03:43:32.683Z,6.13
2023-05-25T03:45:59.464Z,5.57
2023-05-25T03:48:26.407Z,5.93
2023-05-25T03:50:53.885Z,5.72
2023-05-25T03:53:20.556Z,6.85
2023-05-25T03:55:47.172Z,7.57
2023-05-25T03:58:13.772Z,6.78
2023-05-25T04:00:42.258Z,6.70
2023-05-25T04:03:11.026Z,6.18
2023-05-25T04:05:38.651Z,6.10
2023-05-25T04:08:05.374Z,6.45
2023-05-25T04:10:32.022Z,7.13
2023-05-25T04:13:00.002Z,6.45
2023-05-25T04:15:26.854Z,7.10
2023-05-25T04:17:53.647Z,7.97
2023-05-25T04:20:20.442Z,8.68
2023-05-25T04:22:47.701Z,6.95
2023-05-25T04:25:14.493Z,6.72
2023-05-25T04:27:42.324Z,6.63
2023-05-25T04:30:11.227Z,7.57
2023-05-25T04:32:38.669Z,8.30
2023-05-25T04:35:05.771Z,8.00
2023-05-25T04:37:33.385Z,7.00
2023-05-25T04:40:00.229Z,7.43
2023-05-25T04:42:27.030Z,6.57
2023-05-25T04:44:55.806Z,7.50
2023-05-25T04:47:25.021Z,7.28
2023-05-25T04:49:53.259Z,7.07
2023-05-25T04:52:19.956Z,7.93
2023-05-25T04:54:46.933Z,6.80
2023-05-25T04:57:13.620Z,6.90
2023-05-25T04:59:40.282Z,7.88
2023-05-25T05:02:06.974Z,7.00
2023-05-25T05:04:33.620Z,6.78
2023-05-25T05:07:00.289Z,6.40
2023-05-25T05:09:26.900Z,7.32
2023-05-25T05:11:53.530Z,8.35
2023-05-25T05:14:20.267Z,8.48
2023-05-25T05:16:48.246Z,9.35
2023-05-25T05:19:15.071Z,7.60
2023-05-25T05:21:41.674Z,9.35
2023-05-25T05:24:08.267Z,8.80
2023-05-25T05:26:48.269Z,8.60
2023-05-25T05:29:21.509Z,7.47
2023-05-25T05:31:48.266Z,9.07
2023-05-25T05:34:15.032Z,7.35
2023-05-25T05:36:55.972Z,8.13
2023-05-25T05:39:24.443Z,7.63
2023-05-25T05:41:51.361Z,8.10
2023-05-25T05:44:18.644Z,7.28
2023-05-25T05:46:45.356Z,8.27
2023-05-25T05:49:12.063Z,8.57
2023-05-25T05:51:38.715Z,7.38
2023-05-25T05:54:05.661Z,6.93
2023-05-25T05:56:32.281Z,6.70
2023-05-25T05:58:58.925Z,6.13
2023-05-25T06:01:25.567Z,6.53
2023-05-25T06:03:56.050Z,7.03
2023-05-25T06:06:22.777Z,7.70
2023-05-25T06:08:49.428Z,7.38
2023-05-25T06:11:16.195Z,6.57
2023-05-25T06:13:44.174Z,6.13
2023-05-25T06:16:12.616Z,7.18
2023-05-25T06:18:39.367Z,7.43
2023-05-25T06:21:06.465Z,7.07
2023-05-25T06:23:33.037Z,6.43
2023-05-25T06:26:06.324Z,7.35
2023-05-25T06:28:33.266Z,7.50
2023-05-25T06:30:59.977Z,8.02
2023-05-25T06:33:26.910Z,8.48
2023-05-25T06:35:58.278Z,8.88
2023-05-25T06:38:24.994Z,7.28
2023-05-25T06:40:51.592Z,7.47
2023-05-25T06:43:18.311Z,7.90
2023-05-25T06:45:45.338Z,7.47
2023-05-25T06:48:12.232Z,7.78
2023-05-25T06:50:40.145Z,8.10
2023-05-25T06:53:06.829Z,7.50
2023-05-25T06:55:33.472Z,7.85
2023-05-25T06:58:00.154Z,6.45
2023-05-25T07:00:26.981Z,7.75
2023-05-25T07:02:53.883Z,7.07
2023-05-25T07:05:20.835Z,7.95
2023-05-25T07:07:48.102Z,6.80
2023-05-25T07:10:14.800Z,7.35
2023-05-25T07:12:41.440Z,6.97
2023-05-25T07:15:08.800Z,7.07
2023-05-25T07:17:36.676Z,7.15
2023-05-25T07:20:04.863Z,7.15
2023-05-25T07:22:31.732Z,7.30
2023-05-25T07:24:58.586Z,7.57
2023-05-25T07:27:25.637Z,7.65
2023-05-25T07:29:52.264Z,7.72
2023-05-25T07:32:19.047Z,6.72
2023-05-25T07:34:46.187Z,7.35
2023-05-25T07:37:12.871Z,7.00
2023-05-25T07:39:40.587Z,7.05
2023-05-25T07:42:07.377Z,7.57
2023-05-25T07:44:34.022Z,6.90
2023-05-25T07:47:01.681Z,6.38
2023-05-25T07:49:28.766Z,7.88
2023-05-25T07:51:55.477Z,6.70
2023-05-25T07:54:22.125Z,6.82
2023-05-25T07:56:51.972Z,7.30
2023-05-25T07:59:19.017Z,6.32
2023-05-25T08:01:45.876Z,7.20
2023-05-25T08:04:13.044Z,6.75
2023-05-25T08:06:40.231Z,6.38
2023-05-25T08:09:08.115Z,6.97
2023-05-25T08:11:34.950Z,6.75
2023-05-25T08:14:01.831Z,6.90
2023-05-25T08:16:28.749Z,6.82
2023-05-25T08:18:55.579Z,7.43
2023-05-25T08:21:22.491Z,7.20
2023-05-25T08:23:50.779Z,6.72
2023-05-25T08:28:47.187Z,5.03
2023-05-25T08:31:15.531Z,5.60
2023-05-25T08:33:42.265Z,6.05
2023-05-25T08:36:09.459Z,6.60
2023-05-25T08:38:36.057Z,5.28
2023-05-25T08:41:07.110Z,5.10
2023-05-25T08:43:34.185Z,4.68
2023-05-25T08:46:05.831Z,5.18
2023-05-25T08:48:41.600Z,5.53
2023-05-25T08:51:11.501Z,5.10
2023-05-25T08:53:41.031Z,4.20
2023-05-25T08:56:14.438Z,5.80
2023-05-25T08:58:54.017Z,5.13
2023-05-25T09:01:22.246Z,5.63
2023-05-25T09:03:50.332Z,4.53
2023-05-25T09:06:17.872Z,5.90
2023-05-25T09:08:49.555Z,5.35
2023-05-25T09:11:19.435Z,5.22
2023-05-25T09:16:25.632Z,5.20
2023-05-25T09:18:53.781Z,5.25
2023-05-25T09:21:20.750Z,5.25
2023-05-25T09:23:47.809Z,5.07
2023-05-25T09:26:15.161Z,5.28
2023-05-25T09:28:47.283Z,6.60
2023-05-25T09:31:15.524Z,6.30
2023-05-25T09:33:43.659Z,5.05
2023-05-25T09:36:13.249Z,5.28
2023-05-25T09:38:40.790Z,6.07
2023-05-25T09:41:07.927Z,5.97
2023-05-25T09:43:44.697Z,6.18
2023-05-25T09:46:16.190Z,5.05
2023-05-25T09:48:43.945Z,5.60
2023-05-25T09:51:11.976Z,6.00
2023-05-25T09:53:38.713Z,4.97
2023-05-25T09:56:05.872Z,4.75
2023-05-25T09:58:32.927Z,5.03
2023-05-25T10:00:59.832Z,4.93
2023-05-25T10:03:27.679Z,4.07
2023-05-25T10:05:55.090Z,5.07
2023-05-25T10:08:27.992Z,5.00
2023-05-25T10:10:55.886Z,5.18
2023-05-25T10:13:23.576Z,5.10
2023-05-25T10:15:53.523Z,5.65
2023-05-25T10:18:25.890Z,5.38
2023-05-25T10:21:03.010Z,5.82
2023-05-25T10:23:38.258Z,5.32
2023-05-25T10:26:06.217Z,5.75
2023-05-25T10:28:37.078Z,5.78
2023-05-25T10:31:04.374Z,5.88
2023-05-25T10:33:33.000Z,5.60
2023-05-25T10:36:09.389Z,6.55
2023-05-25T10:38:39.897Z,4.70
2023-05-25T10:41:06.804Z,6.47
2023-05-25T10:43:33.647Z,5.25
2023-05-25T10:46:00.750Z,5.72
2023-05-25T10:48:47.717Z,5.20
2023-05-25T10:51:14.758Z,5.07
2023-05-25T10:53:48.452Z,5.88
2023-05-25T10:56:15.327Z,5.68
2023-05-25T10:58:44.312Z,5.50
2023-05-25T11:01:12.909Z,4.50
2023-05-25T11:03:57.419Z,5.43
2023-05-25T11:06:47.015Z,5.07
2023-05-25T11:09:36.057Z,4.80
2023-05-25T11:12:04.132Z,5.25
2023-05-25T11:14:32.645Z,5.60
2023-05-25T11:17:14.906Z,4.35
2023-05-25T11:19:51.000Z,5.03
2023-05-25T11:22:23.917Z,4.57
2023-05-25T11:24:52.101Z,5.45
2023-05-25T11:27:29.887Z,6.15
2023-05-25T11:29:58.432Z,5.22
2023-05-25T11:32:29.340Z,4.75
2023-05-25T11:34:58.486Z,4.65
2023-05-25T11:37:28.860Z,4.85
2023-05-25T11:39:55.758Z,5.15
2023-05-25T11:42:24.305Z,4.80
2023-05-25T11:44:51.456Z,5.72
2023-05-25T11:47:23.313Z,5.20
2023-05-25T11:49:50.710Z,5.05
2023-05-25T11:52:18.415Z,5.47
2023-05-25T11:54:45.524Z,5.70
2023-05-25T11:57:18.990Z,6.35
2023-05-25T11:59:57.396Z,6.43
2023-05-25T12:02:24.383Z,5.63
2023-05-25T12:05:04.329Z,5.68
2023-05-25T12:07:32.031Z,5.70
2023-05-25T12:10:09.785Z,5.53
2023-05-25T12:12:51.580Z,5.28
2023-05-25T12:15:22.175Z,5.10
2023-05-25T12:17:49.243Z,4.95
2023-05-25T12:20:17.105Z,4.82
2023-05-25T12:22:44.594Z,4.00
2023-05-25T12:25:12.951Z,4.45
2023-05-25T12:27:40.309Z,4.53
2023-05-25T12:30:09.385Z,4.30
2023-05-25T12:33:02.670Z,5.43
2023-05-25T12:35:30.334Z,5.10
2023-05-25T12:38:19.740Z,4.55
2023-05-25T12:40:46.808Z,4.07
2023-05-25T12:43:15.387Z,5.05
2023-05-25T12:45:42.926Z,5.30
2023-05-25T12:48:09.912Z,5.18
2023-05-25T12:50:37.236Z,5.65
2023-05-25T12:53:04.440Z,5.15
2023-05-25T12:55:33.116Z,4.25
2023-05-25T12:58:05.558Z,4.25
2023-05-25T13:00:41.025Z,4.35
2023-05-25T13:03:08.225Z,4.00
2023-05-25T13:05:39.394Z,5.10
2023-05-25T13:08:07.003Z,5.47
2023-05-25T13:10:34.164Z,5.38
2023-05-25T13:13:01.120Z,5.03
2023-05-25T13:15:28.196Z,5.15
2023-05-25T13:17:56.404Z,4.75
2023-05-25T13:20:25.128Z,5.82
2023-05-25T13:22:53.617Z,4.72
2023-05-25T13:25:22.283Z,4.70
2023-05-25T13:27:51.321Z,4.80
2023-05-25T13:30:18.526Z,6.40
2023-05-25T13:32:45.217Z,5.00
2023-05-25T13:35:18.629Z,4.97
2023-05-25T13:37:48.393Z,5.60
2023-05-25T13:40:15.086Z,6.03
2023-05-25T13:42:41.858Z,5.07
2023-05-25T13:45:09.257Z,6.15
2023-05-25T13:47:35.977Z,6.18
2023-05-25T13:50:02.733Z,5.80
2023-05-25T13:52:29.772Z,6.72
2023-05-25T13:54:56.579Z,5.75
2023-05-25T13:57:23.266Z,5.55
2023-05-25T13:59:50.053Z,5.55
2023-05-25T14:02:17.068Z,6.35
2023-05-25T14:04:43.729Z,7.45
2023-05-25T14:07:11.045Z,6.25
2023-05-25T14:09:37.736Z,5.93
2023-05-25T14:12:04.662Z,5.55
2023-05-25T14:14:32.580Z,6.03
2023-05-25T14:17:00.585Z,6.25
2023-05-25T14:19:27.385Z,6.20
2023-05-25T14:22:10.994Z,5.47
2023-05-25T14:24:38.985Z,6.13
2023-05-25T14:27:07.313Z,6.28
2023-05-25T14:33:21.149Z,6.00
2023-05-25T14:35:47.857Z,6.35
2023-05-25T14:38:14.533Z,6.07
2023-05-25T14:40:41.175Z,6.43
2023-05-25T14:43:07.824Z,6.28
2023-05-25T14:45:34.394Z,7.47
2023-05-25T14:48:15.344Z,7.07
2023-05-25T14:50:44.599Z,7.15
2023-05-25T14:53:11.837Z,6.75
2023-05-25T14:55:38.479Z,7.05
2023-05-25T14:58:05.188Z,7.65
2023-05-25T15:00:31.922Z,6.90
2023-05-25T15:02:58.611Z,7.57
2023-05-25T15:05:25.420Z,6.85
2023-05-25T15:07:52.021Z,7.93
2023-05-25T15:10:18.709Z,7.82
2023-05-25T15:12:45.330Z,6.78
2023-05-25T15:15:12.420Z,7.13
2023-05-25T15:17:39.049Z,6.75
2023-05-25T15:20:06.292Z,7.43
2023-05-25T15:22:32.972Z,7.07
2023-05-25T15:25:02.293Z,6.38
2023-05-25T15:27:29.248Z,7.30
2023-05-25T15:29:55.834Z,7.32
2023-05-25T15:32:22.488Z,7.05
2023-05-25T15:34:49.048Z,7.50
2023-05-25T15:37:15.718Z,6.90
2023-05-25T15:39:42.321Z,7.10
2023-05-25T15:42:08.947Z,6.78
2023-05-25T15:44:35.619Z,7.07
2023-05-25T15:47:02.245Z,6.20
2023-05-25T15:49:28.832Z,6.70
2023-05-25T15:51:55.465Z,6.55
2023-05-25T15:54:22.137Z,7.00
2023-05-25T15:56:48.726Z,5.90
2023-05-25T15:59:15.408Z,6.60
2023-05-25T16:01:42.122Z,7.25
2023-05-25T16:04:09.176Z,7.15
2023-05-25T16:06:36.885Z,7.57
2023-05-25T16:09:04.372Z,7.80
2023-05-25T16:11:33.066Z,6.65
2023-05-25T16:13:59.630Z,7.85
2023-05-25T16:16:26.299Z,8.10
2023-05-25T16:18:53.047Z,7.25
2023-05-25T16:21:19.664Z,7.72
2023-05-25T16:23:46.266Z,6.63
2023-05-25T16:26:12.858Z,6.35
2023-05-25T16:28:39.808Z,7.30
2023-05-25T16:31:06.989Z,7.03
2023-05-25T16:33:35.130Z,6.05
2023-05-25T16:36:01.817Z,6.75
2023-05-25T16:38:28.486Z,5.65
2023-05-25T16:40:55.152Z,6.60
2023-05-25T16:43:25.155Z,6.18
2023-05-25T16:45:51.989Z,6.22
2023-05-25T16:48:20.310Z,6.53
2023-05-25T16:50:48.324Z,5.82
2023-05-25T16:53:14.923Z,5.90
2023-05-25T16:55:41.550Z,5.90
2023-05-25T16:58:08.213Z,5.45
2023-05-25T17:00:34.840Z,5.75
2023-05-25T17:03:01.591Z,5.63
2023-05-25T17:05:28.305Z,6.03
2023-05-25T17:07:55.048Z,5.15
2023-05-25T17:10:21.650Z,5.20
2023-05-25T17:12:48.268Z,5.45
2023-05-25T17:15:16.177Z,5.10
2023-05-25T17:17:43.518Z,5.40
2023-05-25T17:20:11.600Z,5.15
2023-05-25T17:22:38.576Z,5.18
2023-05-25T17:25:06.429Z,5.47
2023-05-25T17:27:34.033Z,5.30
2023-05-25T17:30:00.768Z,5.95
2023-05-25T17:32:27.453Z,5.70
2023-05-25T17:34:54.162Z,4.70
2023-05-25T17:37:21.285Z,5.50
2023-05-25T17:39:48.041Z,5.22
2023-05-25T17:42:14.661Z,5.32
2023-05-25T17:44:42.527Z,4.60
2023-05-25T17:47:11.233Z,4.65
2023-05-25T17:49:38.163Z,5.55
2023-05-25T17:52:05.077Z,5.97
2023-05-25T17:54:31.707Z,5.32
2023-05-25T17:56:58.300Z,5.05
2023-05-25T17:59:24.955Z,4.50
2023-05-25T18:01:51.686Z,4.57
2023-05-25T18:04:19.763Z,4.80
2023-05-25T18:06:47.240Z,4.40
2023-05-25T18:09:13.892Z,5.30
2023-05-25T18:11:41.154Z,4.68
2023-05-25T18:14:07.906Z,5.10
2023-05-25T18:16:39.643Z,4.60
2023-05-25T18:19:07.120Z,4.15
2023-05-25T18:21:33.957Z,5.00
2023-05-25T18:24:00.538Z,4.70
2023-05-25T18:26:27.123Z,4.10
2023-05-25T18:28:53.793Z,4.45
2023-05-25T18:31:20.547Z,4.75
2023-05-25T18:33:47.205Z,5.07
2023-05-25T18:36:13.906Z,4.05
2023-05-25T18:38:40.512Z,5.10
2023-05-25T18:41:07.210Z,4.85
2023-05-25T18:43:33.787Z,4.97
2023-05-25T18:46:00.472Z,5.25
2023-05-25T18:48:27.136Z,4.47
2023-05-25T18:50:53.897Z,4.95
2023-05-25T18:53:20.645Z,4.68
2023-05-25T18:55:47.333Z,4.32
2023-05-25T18:58:14.140Z,4.47
2023-05-25T19:00:40.754Z,4.65
2023-05-25T19:03:07.513Z,5.40
2023-05-25T19:05:34.163Z,4.30
2023-05-25T19:08:00.817Z,4.38
2023-05-25T19:10:27.686Z,5.53
2023-05-25T19:12:54.408Z,4.35
2023-05-25T19:15:21.153Z,3.78
2023-05-25T19:17:47.899Z,4.30
2023-05-25T19:20:14.707Z,4.30
2023-05-25T19:22:41.932Z,4.70
2023-05-25T19:25:08.810Z,4.20
2023-05-25T19:27:35.485Z,4.03
2023-05-25T19:30:02.110Z,4.93
2023-05-25T19:32:28.737Z,5.03
2023-05-25T19:34:55.759Z,4.85
2023-05-25T19:37:22.344Z,5.13
2023-05-25T19:39:48.935Z,4.63
2023-05-25T19:42:15.611Z,4.53
2023-05-25T19:44:42.234Z,5.47
2023-05-25T19:47:08.813Z,5.57
2023-05-25T19:49:35.696Z,4.82
2023-05-25T19:52:02.420Z,4.88
2023-05-25T19:54:28.979Z,4.72
2023-05-25T19:56:55.614Z,5.07
2023-05-25T19:59:22.238Z,5.88
2023-05-25T20:01:48.959Z,5.05
2023-05-25T20:04:15.657Z,5.88
2023-05-25T20:06:42.271Z,5.25
2023-05-25T20:09:12.492Z,5.40
2023-05-25T20:11:39.159Z,5.63
2023-05-25T20:14:07.586Z,5.40
2023-05-25T20:16:34.343Z,5.90
2023-05-25T20:19:01.655Z,5.72
2023-05-25T20:21:28.925Z,5.38
2023-05-25T20:23:56.972Z,5.50
2023-05-25T20:26:23.565Z,6.32
2023-05-25T20:28:50.156Z,6.28
2023-05-25T20:31:16.737Z,6.15
2023-05-25T20:33:43.404Z,6.15
2023-05-25T20:36:10.024Z,6.30
2023-05-25T20:38:36.622Z,7.13
2023-05-25T20:41:03.293Z,6.18
2023-05-25T20:43:29.919Z,6.07
2023-05-25T20:45:56.545Z,6.47
2023-05-25T20:48:23.127Z,7.63
2023-05-25T20:50:49.693Z,6.20
2023-05-25T20:53:16.339Z,6.47
2023-05-25T20:55:43.052Z,6.80
2023-05-25T20:58:09.764Z,7.75
2023-05-25T21:00:36.539Z,6.38
2023-05-25T21:03:04.936Z,7.28
2023-05-25T21:05:33.101Z,6.65
2023-05-25T21:07:59.689Z,6.25
2023-05-25T21:10:26.435Z,6.60
2023-05-25T21:12:53.012Z,7.20
2023-05-25T21:15:19.660Z,6.32
2023-05-25T21:17:46.529Z,7.20
2023-05-25T21:20:13.265Z,6.63
2023-05-25T21:22:39.844Z,5.60
2023-05-25T21:25:06.911Z,6.45
2023-05-25T21:27:33.538Z,6.18
2023-05-25T21:30:00.420Z,7.20
2023-05-25T21:32:27.087Z,8.50
2023-05-25T21:34:53.855Z,8.25
2023-05-25T21:37:20.620Z,8.30
2023-05-25T21:39:47.253Z,8.65
2023-05-25T21:42:13.838Z,7.97
2023-05-25T21:44:40.636Z,7.15
2023-05-25T21:47:07.356Z,7.80
2023-05-25T21:49:34.099Z,7.95
2023-05-25T21:52:00.784Z,6.93
2023-05-25T21:54:27.457Z,8.07
2023-05-25T21:56:54.290Z,8.45
2023-05-25T21:59:20.972Z,9.57
2023-05-25T22:01:47.632Z,9.32
2023-05-25T22:04:14.243Z,7.72
2023-05-25T22:06:40.991Z,8.60
2023-05-25T22:09:07.639Z,9.63
2023-05-25T22:11:34.545Z,7.97
2023-05-25T22:14:05.414Z,8.65
2023-05-25T22:16:32.100Z,8.07
2023-05-25T22:18:59.201Z,8.07
2023-05-25T22:21:25.797Z,7.85
2023-05-25T22:23:52.423Z,8.30
2023-05-25T22:26:19.033Z,8.38
2023-05-25T22:28:45.788Z,6.95
2023-05-25T22:31:12.613Z,7.38
2023-05-25T22:33:39.298Z,7.57
2023-05-25T22:36:06.351Z,8.75
2023-05-25T22:38:32.959Z,8.20
2023-05-25T22:40:59.584Z,8.80
2023-05-25T22:43:27.088Z,8.85
2023-05-25T22:45:54.203Z,8.88
2023-05-25T22:48:21.543Z,9.38
2023-05-25T22:50:48.240Z,7.85
2023-05-25T22:53:14.948Z,7.43
2023-05-25T22:55:41.596Z,6.55
2023-05-25T22:58:08.282Z,7.13
2023-05-25T23:00:34.910Z,6.68
2023-05-25T23:03:04.119Z,8.40
2023-05-25T23:05:31.179Z,8.52
2023-05-25T23:07:59.494Z,8.10
2023-05-25T23:10:26.232Z,7.50
2023-05-25T23:12:54.733Z,7.88
2023-05-25T23:15:22.458Z,7.68
2023-05-25T23:17:49.402Z,7.45
2023-05-25T23:20:16.236Z,7.68
2023-05-25T23:22:43.022Z,7.78
2023-05-25T23:25:09.974Z,7.55
2023-05-25T23:27:36.626Z,8.93
2023-05-25T23:30:04.102Z,10.80
2023-05-25T23:32:30.811Z,11.23
2023-05-25T23:34:57.610Z,10.80
2023-05-25T23:37:24.268Z,10.73
2023-05-25T23:39:50.914Z,9.90
2023-05-25T23:42:17.568Z,11.18
2023-05-25T23:44:44.165Z,11.05
2023-05-25T23:47:10.860Z,7.90
2023-05-25T23:49:37.445Z,7.93
2023-05-25T23:52:06.050Z,8.23
2023-05-25T23:54:32.726Z,8.32
2023-05-25T23:56:59.313Z,8.00
2023-05-25T23:59:26.043Z,8.77
